Hendricks, Minnesota
Current Conditions -  °F | °C
As of 4:13 PM on Friday 24 Oct 2014 (Local Time) from KCNB Reporting Station
Clear Clear  
Wind Chill: 75°   Ceiling: Unl
Heat Index: 75°   Visibility: 10mi
Dew Point: 40°   Wind: 13mph
Humidity: 28%   Direction: 290°WNW
Pressure: 29.87"   Gusts: NA
Location:  44.51°N, 96.42°W
Report Text: KCNB 242113Z AUTO 29011KT 10SM CLR 24/04 A2987 RMK AO2 T02410044
Loading
Personal Weather Stations






























Interactive Weather Map
Tropical Storm Tracking
New forecast layout! Learn more

10-Day Weather Forecast

Advertisements
Track Severe Weather on mobile